Time;durP1;ratioP1;P1;durP2;ratioP2;P2;SDS_P1;SDS_P2;PMS_P1;PMS_P2;Temp;Humidity;BMP_temperature;BMP_pressure;BME280_temperature;BME280_humidity;BME280_pressure;Samples;Min_cycle;Max_cycle;Signal;HPM_P1;HPM_P2
2022/10/15 00:02:19;;;;;;;2.58;1.10;;;;;;;;;;5008306;28;20220;-69
2022/10/15 00:04:48;;;;;;;1.38;1.38;;;;;;;;;;5008345;28;20235;-69
2022/10/15 00:07:15;;;;;;;2.38;1.77;;;;;;;;;;5007967;28;20914;-69
2022/10/15 00:09:42;;;;;;;1.42;1.33;;;;;;;;;;5008056;28;20205;-69
2022/10/15 00:12:09;;;;;;;1.50;1.50;;;;;;;;;;5007886;28;20201;-69
2022/10/15 00:14:36;;;;;;;1.60;1.58;;;;;;;;;;5008057;28;20213;-69
2022/10/15 00:17:03;;;;;;;1.60;1.50;;;;;;;;;;5008508;28;20216;-69
2022/10/15 00:19:30;;;;;;;1.63;1.63;;;;;;;;;;5007993;28;20209;-69
2022/10/15 00:21:58;;;;;;;1.42;1.42;;;;;;;;;;5007734;28;20217;-70
2022/10/15 00:24:26;;;;;;;1.73;1.63;;;;;;;;;;5007627;28;20209;-70
2022/10/15 00:26:53;;;;;;;1.98;1.98;;;;;;;;;;5007852;28;20237;-69
2022/10/15 00:29:20;;;;;;;1.88;1.85;;;;;;;;;;5007676;28;20216;-69
2022/10/15 00:31:47;;;;;;;1.90;1.90;;;;;;;;;;5010748;28;20244;-69
2022/10/15 00:34:14;;;;;;;2.03;1.92;;;;;;;;;;5007995;28;20205;-69
2022/10/15 00:36:41;;;;;;;1.98;1.88;;;;;;;;;;5007405;28;20205;-69
2022/10/15 00:39:09;;;;;;;2.05;1.80;;;;;;;;;;5007629;28;20209;-69
2022/10/15 00:41:37;;;;;;;7.57;1.88;;;;;;;;;;5007498;28;20292;-69
2022/10/15 00:44:19;;;;;;;3.25;2.15;;;;;;;;;;5007619;28;20216;-69
2022/10/15 00:46:47;;;;;;;2.00;1.90;;;;;;;;;;5007678;28;20205;-69
2022/10/15 00:49:18;;;;;;;1.70;1.60;;;;;;;;;;5007574;28;20664;-69
2022/10/15 00:51:48;;;;;;;2.33;2.15;;;;;;;;;;5007085;28;20231;-69
2022/10/15 00:54:17;;;;;;;2.05;1.95;;;;;;;;;;5007821;28;20228;-69
2022/10/15 00:56:45;;;;;;;2.15;2.03;;;;;;;;;;5007863;28;20401;-69
2022/10/15 00:59:13;;;;;;;2.60;2.40;;;;;;;;;;5007536;28;20628;-69
2022/10/15 01:01:40;;;;;;;1.95;1.85;;;;;;;;;;5007352;28;20212;-69
2022/10/15 01:04:08;;;;;;;1.67;1.67;;;;;;;;;;5006186;28;20251;-68
2022/10/15 01:06:35;;;;;;;2.22;2.13;;;;;;;;;;5007821;28;20212;-69
2022/10/15 01:09:02;;;;;;;3.53;2.08;;;;;;;;;;5007493;28;20232;-69
2022/10/15 01:11:37;;;;;;;2.42;2.33;;;;;;;;;;5007250;28;20236;-69
2022/10/15 01:14:12;;;;;;;2.53;2.30;;;;;;;;;;5007041;28;20219;-69
2022/10/15 01:16:44;;;;;;;2.40;2.30;;;;;;;;;;5007259;28;20235;-69
2022/10/15 01:19:20;;;;;;;2.97;2.72;;;;;;;;;;5006172;28;20340;-69
2022/10/15 01:21:51;;;;;;;3.03;2.83;;;;;;;;;;5007788;28;20212;-69
2022/10/15 01:24:35;;;;;;;2.50;2.40;;;;;;;;;;5007210;28;20212;-69
2022/10/15 01:27:22;;;;;;;1.95;1.88;;;;;;;;;;5006423;28;20345;-69
2022/10/15 01:30:23;;;;;;;2.45;2.35;;;;;;;;;;5006218;28;20201;-69
2022/10/15 01:33:03;;;;;;;2.92;2.72;;;;;;;;;;5000148;28;20236;-69
2022/10/15 01:35:35;;;;;;;2.90;2.70;;;;;;;;;;5007320;28;20306;-69
2022/10/15 01:38:08;;;;;;;2.67;2.58;;;;;;;;;;5007070;28;20239;-69
2022/10/15 01:40:38;;;;;;;3.08;2.92;;;;;;;;;;5006841;28;20312;-69
2022/10/15 01:43:08;;;;;;;2.38;2.28;;;;;;;;;;5005555;28;20209;-69
2022/10/15 01:45:37;;;;;;;3.80;2.97;;;;;;;;;;5000574;28;20643;-69
2022/10/15 01:48:09;;;;;;;3.10;2.90;;;;;;;;;;5002567;28;20205;-69
2022/10/15 01:50:37;;;;;;;3.05;2.85;;;;;;;;;;5005950;28;20216;-69
2022/10/15 01:53:05;;;;;;;3.17;2.97;;;;;;;;;;4999097;28;20602;-69
2022/10/15 01:55:32;;;;;;;3.20;2.95;;;;;;;;;;5002358;28;20209;-69
2022/10/15 01:58:00;;;;;;;2.92;2.83;;;;;;;;;;5002026;28;20216;-69
2022/10/15 02:00:27;;;;;;;3.20;2.90;;;;;;;;;;5005800;28;20209;-69
2022/10/15 02:02:54;;;;;;;3.03;2.83;;;;;;;;;;5010120;28;20209;-69
2022/10/15 02:05:25;;;;;;;3.30;3.05;;;;;;;;;;5010725;28;20213;-69
2022/10/15 02:07:55;;;;;;;3.63;3.30;;;;;;;;;;5012743;28;20672;-70
2022/10/15 02:10:26;;;;;;;6.70;2.47;;;;;;;;;;5020308;28;20296;-69
2022/10/15 02:13:02;;;;;;;2.80;2.60;;;;;;;;;;4991075;28;20217;-69
2022/10/15 02:15:36;;;;;;;2.53;2.42;;;;;;;;;;5008606;28;20223;-69
2022/10/15 02:18:05;;;;;;;2.80;2.55;;;;;;;;;;5010361;28;20209;-69
2022/10/15 02:20:37;;;;;;;5.30;3.35;;;;;;;;;;5010298;28;20205;-69
2022/10/15 02:23:08;;;;;;;2.85;2.70;;;;;;;;;;5009716;28;20625;-69
2022/10/15 02:25:36;;;;;;;3.13;2.88;;;;;;;;;;5010133;28;20640;-69
2022/10/15 02:28:04;;;;;;;2.75;2.55;;;;;;;;;;5009940;28;20244;-69
2022/10/15 02:30:31;;;;;;;2.65;2.53;;;;;;;;;;5009978;28;20227;-69
2022/10/15 02:32:59;;;;;;;2.15;2.05;;;;;;;;;;5009897;28;20205;-69
2022/10/15 02:35:26;;;;;;;2.90;2.70;;;;;;;;;;5008256;28;20213;-69
2022/10/15 02:37:56;;;;;;;2.17;2.03;;;;;;;;;;5009660;28;20598;-69
2022/10/15 02:40:26;;;;;;;2.35;2.15;;;;;;;;;;5009742;28;20675;-69
2022/10/15 02:42:53;;;;;;;2.60;2.50;;;;;;;;;;5009685;28;20205;-69
2022/10/15 02:45:32;;;;;;;2.97;2.78;;;;;;;;;;5010066;28;20213;-72
2022/10/15 02:47:59;;;;;;;2.42;2.33;;;;;;;;;;5009645;28;20264;-68
2022/10/15 02:50:26;;;;;;;2.38;2.28;;;;;;;;;;5009554;28;20524;-68
2022/10/15 02:52:53;;;;;;;2.90;2.70;;;;;;;;;;5008889;28;20201;-68
2022/10/15 02:55:22;;;;;;;2.10;2.00;;;;;;;;;;5009340;28;20208;-68
2022/10/15 02:57:49;;;;;;;2.25;2.20;;;;;;;;;;5009080;28;20688;-68
2022/10/15 03:00:17;;;;;;;2.90;2.75;;;;;;;;;;5008784;28;20212;-68
2022/10/15 03:02:44;;;;;;;2.30;2.20;;;;;;;;;;5008789;28;20201;-68
2022/10/15 03:05:11;;;;;;;2.58;2.38;;;;;;;;;;5009524;28;20205;-68
2022/10/15 03:07:38;;;;;;;2.40;2.17;;;;;;;;;;5008971;28;20204;-68
2022/10/15 03:10:06;;;;;;;9.00;2.60;;;;;;;;;;5008609;28;20216;-68
2022/10/15 03:12:34;;;;;;;2.28;2.17;;;;;;;;;;5007539;28;20303;-68
2022/10/15 03:15:01;;;;;;;2.15;2.05;;;;;;;;;;5008695;28;20225;-69
2022/10/15 03:17:28;;;;;;;2.03;1.92;;;;;;;;;;5008152;28;20200;-69
2022/10/15 03:19:55;;;;;;;2.15;2.05;;;;;;;;;;5008631;28;20612;-69
2022/10/15 03:22:22;;;;;;;2.00;1.90;;;;;;;;;;5007991;28;20208;-68
2022/10/15 03:24:50;;;;;;;2.35;2.15;;;;;;;;;;5008237;28;20216;-71
2022/10/15 03:27:17;;;;;;;2.08;1.90;;;;;;;;;;5007990;28;20241;-68
2022/10/15 03:29:45;;;;;;;2.08;2.00;;;;;;;;;;5008328;28;20220;-68
2022/10/15 03:32:12;;;;;;;2.13;2.03;;;;;;;;;;5007821;28;20221;-69
2022/10/15 03:34:39;;;;;;;1.98;1.85;;;;;;;;;;5008252;28;20971;-69
2022/10/15 03:37:06;;;;;;;2.00;1.90;;;;;;;;;;5008293;28;20215;-69
2022/10/15 03:39:33;;;;;;;2.13;2.03;;;;;;;;;;5007833;28;20209;-69
2022/10/15 03:42:00;;;;;;;1.88;1.88;;;;;;;;;;5008260;28;20208;-69
2022/10/15 03:44:27;;;;;;;2.05;1.95;;;;;;;;;;5008879;28;20213;-69
2022/10/15 03:46:56;;;;;;;2.10;2.00;;;;;;;;;;5006486;28;20212;-69
2022/10/15 03:49:23;;;;;;;1.92;1.83;;;;;;;;;;5008624;28;20217;-69
2022/10/15 03:51:50;;;;;;;2.45;2.30;;;;;;;;;;5008407;28;20364;-69
2022/10/15 03:54:17;;;;;;;2.03;1.83;;;;;;;;;;5008436;28;20216;-69
2022/10/15 03:56:44;;;;;;;2.30;2.20;;;;;;;;;;5008461;28;20205;-70
2022/10/15 03:59:11;;;;;;;2.15;1.55;;;;;;;;;;5008662;28;20220;-70
2022/10/15 04:01:38;;;;;;;1.55;1.52;;;;;;;;;;5008318;28;20228;-69
2022/10/15 04:04:07;;;;;;;1.60;1.50;;;;;;;;;;5008343;28;20730;-69
2022/10/15 04:06:34;;;;;;;2.22;2.13;;;;;;;;;;5008274;28;20209;-69
2022/10/15 04:09:01;;;;;;;1.73;1.65;;;;;;;;;;5007906;28;20208;-70
2022/10/15 04:11:28;;;;;;;1.40;1.40;;;;;;;;;;5006793;28;20221;-69
2022/10/15 04:13:55;;;;;;;1.70;1.60;;;;;;;;;;5007746;28;20217;-69
2022/10/15 04:16:22;;;;;;;2.38;1.60;;;;;;;;;;5007661;28;20208;-69
2022/10/15 04:18:49;;;;;;;2.10;2.00;;;;;;;;;;5007456;28;20208;-69
2022/10/15 04:21:18;;;;;;;1.75;1.67;;;;;;;;;;5007454;28;20725;-70
2022/10/15 04:23:45;;;;;;;1.40;1.40;;;;;;;;;;5007692;28;20219;-69
2022/10/15 04:26:12;;;;;;;1.42;1.42;;;;;;;;;;5007090;28;20347;-69
2022/10/15 04:28:39;;;;;;;1.75;1.65;;;;;;;;;;5007179;28;20232;-69
2022/10/15 04:31:06;;;;;;;1.42;1.30;;;;;;;;;;5007150;28;20216;-69
2022/10/15 04:33:33;;;;;;;1.35;1.30;;;;;;;;;;5007580;28;20209;-69
2022/10/15 04:36:01;;;;;;;1.80;1.70;;;;;;;;;;5007197;28;20587;-69
2022/10/15 04:38:29;;;;;;;1.50;1.40;;;;;;;;;;5007630;28;20224;-69
2022/10/15 04:41:00;;;;;;;1.20;1.20;;;;;;;;;;5007145;28;20675;-71
2022/10/15 04:43:27;;;;;;;1.40;1.40;;;;;;;;;;5007389;28;20236;-70
2022/10/15 04:45:56;;;;;;;0.93;0.90;;;;;;;;;;5007813;28;20213;-69
2022/10/15 04:48:23;;;;;;;1.20;1.20;;;;;;;;;;5008071;28;20679;-69
2022/10/15 04:50:50;;;;;;;1.13;1.13;;;;;;;;;;5007612;28;20209;-69
2022/10/15 04:53:17;;;;;;;1.42;1.33;;;;;;;;;;5007845;28;20494;-69
2022/10/15 04:55:45;;;;;;;3.45;1.27;;;;;;;;;;5007531;28;20283;-70
2022/10/15 04:58:13;;;;;;;1.35;1.23;;;;;;;;;;5007576;28;20216;-69
2022/10/15 05:00:40;;;;;;;1.15;1.15;;;;;;;;;;5007140;28;20649;-69
2022/10/15 05:03:07;;;;;;;1.02;1.00;;;;;;;;;;5007902;28;20231;-69
2022/10/15 05:05:34;;;;;;;1.10;1.10;;;;;;;;;;5007420;28;20205;-69
2022/10/15 05:08:01;;;;;;;0.95;0.95;;;;;;;;;;5007715;28;20204;-70
2022/10/15 05:10:28;;;;;;;1.10;1.10;;;;;;;;;;5007307;28;20212;-69
2022/10/15 05:12:57;;;;;;;0.88;0.88;;;;;;;;;;5007801;28;20233;-70
2022/10/15 05:15:26;;;;;;;0.95;0.95;;;;;;;;;;5007650;28;20220;-69
2022/10/15 05:17:53;;;;;;;0.98;0.98;;;;;;;;;;5007565;28;20212;-69
2022/10/15 05:20:20;;;;;;;0.88;0.88;;;;;;;;;;5007236;28;20209;-69
2022/10/15 05:22:47;;;;;;;1.05;1.05;;;;;;;;;;5008867;28;20205;-69
2022/10/15 05:25:14;;;;;;;1.10;1.00;;;;;;;;;;5011239;28;20216;-69
2022/10/15 05:27:41;;;;;;;1.23;1.23;;;;;;;;;;5011116;28;20299;-70
2022/10/15 05:30:10;;;;;;;1.00;1.00;;;;;;;;;;5000582;28;20266;-69
2022/10/15 05:32:37;;;;;;;0.73;0.73;;;;;;;;;;5011170;28;20239;-70
2022/10/15 05:35:05;;;;;;;1.15;1.10;;;;;;;;;;5011250;28;20220;-70
2022/10/15 05:37:32;;;;;;;0.93;0.93;;;;;;;;;;5011300;28;20217;-70
2022/10/15 05:39:59;;;;;;;1.20;1.20;;;;;;;;;;5010120;28;20205;-69
2022/10/15 05:42:26;;;;;;;1.10;1.10;;;;;;;;;;5011190;28;20208;-70
2022/10/15 05:44:53;;;;;;;1.25;0.98;;;;;;;;;;5010958;28;20212;-69
2022/10/15 05:47:21;;;;;;;1.05;1.05;;;;;;;;;;5010462;28;20213;-70
2022/10/15 05:49:48;;;;;;;0.80;0.80;;;;;;;;;;5010261;28;20213;-70
2022/10/15 05:52:15;;;;;;;0.98;0.98;;;;;;;;;;5011068;28;20708;-69
2022/10/15 05:54:42;;;;;;;4.68;1.35;;;;;;;;;;5009627;28;20205;-69
2022/10/15 05:57:09;;;;;;;5.55;1.30;;;;;;;;;;5011227;28;20676;-70
2022/10/15 05:59:37;;;;;;;1.00;1.00;;;;;;;;;;5010432;28;20679;-70
2022/10/15 06:02:04;;;;;;;0.85;0.85;;;;;;;;;;5011344;28;20209;-69
2022/10/15 06:04:32;;;;;;;3.72;1.00;;;;;;;;;;5010990;28;20225;-70
2022/10/15 06:06:59;;;;;;;0.95;0.95;;;;;;;;;;5011280;28;20215;-70
2022/10/15 06:09:26;;;;;;;7.65;1.40;;;;;;;;;;5010495;28;20300;-69
2022/10/15 06:11:53;;;;;;;0.70;0.70;;;;;;;;;;5011072;28;20240;-70
2022/10/15 06:14:20;;;;;;;0.98;0.98;;;;;;;;;;5010553;28;20212;-70
2022/10/15 06:16:49;;;;;;;1.20;1.20;;;;;;;;;;5010651;28;20209;-70
2022/10/15 06:19:16;;;;;;;1.00;1.00;;;;;;;;;;5010685;28;20267;-69
2022/10/15 06:21:45;;;;;;;0.77;0.77;;;;;;;;;;5010892;28;20216;-70
2022/10/15 06:24:12;;;;;;;0.90;0.90;;;;;;;;;;5010549;28;20204;-70
2022/10/15 06:26:39;;;;;;;1.17;1.08;;;;;;;;;;5010808;28;20240;-70
2022/10/15 06:29:06;;;;;;;0.93;0.93;;;;;;;;;;5010398;28;20212;-70
2022/10/15 06:31:33;;;;;;;0.90;0.90;;;;;;;;;;5010002;28;20209;-70
2022/10/15 06:34:00;;;;;;;0.77;0.77;;;;;;;;;;5009354;28;20241;-70
2022/10/15 06:36:27;;;;;;;0.98;0.98;;;;;;;;;;5011039;28;20212;-70
2022/10/15 06:38:55;;;;;;;1.08;1.08;;;;;;;;;;5010185;28;20205;-73
2022/10/15 06:41:22;;;;;;;0.90;0.90;;;;;;;;;;5009854;28;20212;-69
2022/10/15 06:43:50;;;;;;;1.02;1.02;;;;;;;;;;5010036;28;20209;-70
2022/10/15 06:46:17;;;;;;;0.88;0.88;;;;;;;;;;5010116;28;20208;-69
2022/10/15 06:48:44;;;;;;;1.20;1.10;;;;;;;;;;5009992;28;20682;-69
2022/10/15 06:51:12;;;;;;;1.25;1.23;;;;;;;;;;5009214;28;20572;-69
2022/10/15 06:53:42;;;;;;;3.70;1.10;;;;;;;;;;5009370;28;20707;-69
2022/10/15 06:56:10;;;;;;;1.10;1.10;;;;;;;;;;5007117;28;20232;-69
2022/10/15 06:58:37;;;;;;;1.30;1.30;;;;;;;;;;5008636;28;20209;-68
2022/10/15 07:01:06;;;;;;;1.30;1.30;;;;;;;;;;5012159;28;20205;-69
2022/10/15 07:03:34;;;;;;;0.90;0.90;;;;;;;;;;5002898;28;20699;-68
2022/10/15 07:06:03;;;;;;;0.90;0.90;;;;;;;;;;4993409;28;20198;-68
2022/10/15 07:08:30;;;;;;;0.63;0.63;;;;;;;;;;5002036;28;20224;-68
2022/10/15 07:10:57;;;;;;;1.67;1.15;;;;;;;;;;5010035;28;20205;-69
2022/10/15 07:13:25;;;;;;;1.38;1.27;;;;;;;;;;5009365;28;20225;-69
2022/10/15 07:15:54;;;;;;;1.00;1.00;;;;;;;;;;5009542;28;20224;-69
2022/10/15 07:18:21;;;;;;;1.33;0.95;;;;;;;;;;5009724;28;20207;-69
2022/10/15 07:20:49;;;;;;;1.00;1.00;;;;;;;;;;5009398;28;20209;-69
2022/10/15 07:23:16;;;;;;;1.25;1.25;;;;;;;;;;5008806;28;20216;-69
2022/10/15 07:25:43;;;;;;;0.90;0.90;;;;;;;;;;5004071;28;20220;-68
2022/10/15 07:28:10;;;;;;;2.25;1.02;;;;;;;;;;5008657;28;20689;-69
2022/10/15 07:30:38;;;;;;;0.95;0.90;;;;;;;;;;5009103;28;20215;-69
2022/10/15 07:33:05;;;;;;;1.40;0.93;;;;;;;;;;5009075;28;20232;-68
2022/10/15 07:35:32;;;;;;;0.50;0.50;;;;;;;;;;5008651;28;20201;-69
2022/10/15 07:38:01;;;;;;;1.27;1.17;;;;;;;;;;5008600;28;20209;-69
2022/10/15 07:40:28;;;;;;;1.00;1.00;;;;;;;;;;5009013;28;20244;-69
2022/10/15 07:42:56;;;;;;;0.95;0.95;;;;;;;;;;5009017;28;20213;-69
2022/10/15 07:45:23;;;;;;;1.10;1.10;;;;;;;;;;5006934;28;20221;-69
2022/10/15 07:47:51;;;;;;;1.00;1.00;;;;;;;;;;5008676;28;20205;-69
2022/10/15 07:50:18;;;;;;;1.02;0.93;;;;;;;;;;5008305;28;20201;-68
2022/10/15 07:52:45;;;;;;;0.75;0.75;;;;;;;;;;5008555;28;20225;-69
2022/10/15 07:55:13;;;;;;;1.25;1.25;;;;;;;;;;5008168;28;20205;-68
2022/10/15 07:57:40;;;;;;;1.00;1.00;;;;;;;;;;5008362;28;20794;-69
2022/10/15 08:00:08;;;;;;;1.10;1.10;;;;;;;;;;5008603;28;20501;-71
2022/10/15 08:02:35;;;;;;;1.00;1.00;;;;;;;;;;5008984;28;20309;-72
2022/10/15 08:05:03;;;;;;;1.40;1.40;;;;;;;;;;5008725;28;20672;-72
2022/10/15 08:07:34;;;;;;;1.30;1.30;;;;;;;;;;5007435;28;20213;-68
2022/10/15 08:10:01;;;;;;;1.42;1.27;;;;;;;;;;5005537;28;20634;-75
2022/10/15 08:12:28;;;;;;;1.13;1.13;;;;;;;;;;5008602;28;20268;-69
2022/10/15 08:14:55;;;;;;;1.30;1.30;;;;;;;;;;5008349;28;20217;-70
2022/10/15 08:17:22;;;;;;;1.13;1.13;;;;;;;;;;5007477;28;20643;-70
2022/10/15 08:19:49;;;;;;;1.40;1.40;;;;;;;;;;5006687;28;20660;-70
2022/10/15 08:22:18;;;;;;;1.60;0.93;;;;;;;;;;5007581;28;20205;-68
2022/10/15 08:24:45;;;;;;;1.35;1.35;;;;;;;;;;5005810;28;20226;-71
2022/10/15 08:27:12;;;;;;;1.52;1.48;;;;;;;;;;5007121;28;21006;-67
2022/10/15 08:29:39;;;;;;;1.20;1.20;;;;;;;;;;5005881;28;20611;-67
2022/10/15 08:32:06;;;;;;;6.47;1.50;;;;;;;;;;5007409;28;20201;-68
2022/10/15 08:34:33;;;;;;;1.20;1.20;;;;;;;;;;5007407;28;20219;-65
2022/10/15 08:37:00;;;;;;;1.75;1.70;;;;;;;;;;5006056;28;20205;-66
2022/10/15 08:39:29;;;;;;;1.35;1.35;;;;;;;;;;5004750;28;20215;-66
2022/10/15 08:41:57;;;;;;;1.52;1.40;;;;;;;;;;5010293;28;20208;-66
2022/10/15 08:44:26;;;;;;;1.40;1.40;;;;;;;;;;5006585;28;20214;-66
2022/10/15 08:46:56;;;;;;;1.25;1.25;;;;;;;;;;5007141;28;20903;-66
2022/10/15 08:49:28;;;;;;;1.27;1.27;;;;;;;;;;5007823;28;20213;-68
2022/10/15 08:51:57;;;;;;;1.10;1.10;;;;;;;;;;5007346;28;20224;-69
2022/10/15 08:54:24;;;;;;;1.00;1.00;;;;;;;;;;5005386;28;20235;-69
2022/10/15 08:56:55;;;;;;;1.00;1.00;;;;;;;;;;5008950;28;20232;-65
2022/10/15 08:59:31;;;;;;;1.15;1.15;;;;;;;;;;5014526;28;20239;-67
2022/10/15 09:01:59;;;;;;;1.10;1.10;;;;;;;;;;5011610;28;20287;-69
2022/10/15 09:04:30;;;;;;;0.90;0.90;;;;;;;;;;5012223;28;20216;-69
2022/10/15 09:07:03;;;;;;;0.57;0.57;;;;;;;;;;5013853;28;20205;-69
2022/10/15 09:09:35;;;;;;;0.73;0.73;;;;;;;;;;5014120;28;20227;-69
2022/10/15 09:12:09;;;;;;;0.65;0.65;;;;;;;;;;5013369;28;20209;-67
2022/10/15 09:14:38;;;;;;;1.63;0.80;;;;;;;;;;5013701;28;20228;-69
2022/10/15 09:17:15;;;;;;;0.77;0.77;;;;;;;;;;5011016;28;20204;-70
2022/10/15 09:19:44;;;;;;;0.70;0.70;;;;;;;;;;5013867;28;20216;-70
2022/10/15 09:22:12;;;;;;;0.65;0.65;;;;;;;;;;5013922;28;20200;-70
2022/10/15 09:24:39;;;;;;;0.95;0.95;;;;;;;;;;4999416;28;20572;-70
2022/10/15 09:27:10;;;;;;;1.20;1.10;;;;;;;;;;5013685;28;20243;-70
2022/10/15 09:29:40;;;;;;;1.20;0.93;;;;;;;;;;5014131;28;20296;-70
2022/10/15 09:32:11;;;;;;;1.05;1.05;;;;;;;;;;5014133;28;20249;-70
2022/10/15 09:34:40;;;;;;;1.00;1.00;;;;;;;;;;5014428;28;20228;-71
2022/10/15 09:37:12;;;;;;;0.80;0.80;;;;;;;;;;5013833;28;20215;-67
2022/10/15 09:39:45;;;;;;;0.68;0.68;;;;;;;;;;5000999;28;20216;-69
2022/10/15 09:42:19;;;;;;;1.10;1.10;;;;;;;;;;5009732;28;20255;-69
2022/10/15 09:44:47;;;;;;;0.80;0.80;;;;;;;;;;5011339;28;20233;-69
2022/10/15 09:47:18;;;;;;;0.63;0.63;;;;;;;;;;5013610;28;20220;-66
2022/10/15 09:49:45;;;;;;;0.63;0.63;;;;;;;;;;5013555;28;20216;-66
2022/10/15 09:52:16;;;;;;;0.80;0.80;;;;;;;;;;5013312;28;20223;-69
2022/10/15 09:54:45;;;;;;;0.70;0.70;;;;;;;;;;5011888;28;20221;-69
2022/10/15 09:57:14;;;;;;;4.88;0.75;;;;;;;;;;5009603;28;20220;-67
2022/10/15 09:59:54;;;;;;;0.80;0.80;;;;;;;;;;5013380;28;20208;-68
2022/10/15 10:02:22;;;;;;;0.63;0.63;;;;;;;;;;5011836;28;20205;-68
2022/10/15 10:04:49;;;;;;;0.50;0.50;;;;;;;;;;5013605;28;20594;-66
2022/10/15 10:07:29;;;;;;;0.80;0.80;;;;;;;;;;5012001;28;20550;-70
2022/10/15 10:09:57;;;;;;;0.50;0.50;;;;;;;;;;5010113;28;20204;-68
2022/10/15 10:12:26;;;;;;;0.40;0.40;;;;;;;;;;5005787;28;20213;-69
2022/10/15 10:14:56;;;;;;;0.40;0.40;;;;;;;;;;5008113;28;20228;-73
2022/10/15 10:17:24;;;;;;;2.40;0.50;;;;;;;;;;5008927;28;20212;-78
2022/10/15 10:20:04;;;;;;;3.25;0.55;;;;;;;;;;5003949;28;20702;-74
2022/10/15 10:22:42;;;;;;;0.70;0.70;;;;;;;;;;5003876;28;20263;-74
2022/10/15 10:25:23;;;;;;;0.40;0.40;;;;;;;;;;5004434;28;20202;-74
2022/10/15 10:27:50;;;;;;;0.30;0.30;;;;;;;;;;4999083;28;20240;-74
2022/10/15 10:30:19;;;;;;;1.20;0.60;;;;;;;;;;5007866;28;20201;-74
2022/10/15 10:32:47;;;;;;;0.47;0.47;;;;;;;;;;5003704;28;20220;-74
2022/10/15 10:35:20;;;;;;;0.63;0.50;;;;;;;;;;5002436;28;20265;-74
2022/10/15 10:37:47;;;;;;;0.60;0.60;;;;;;;;;;5000163;28;20200;-73
2022/10/15 10:40:22;;;;;;;0.63;0.63;;;;;;;;;;5010138;28;20205;-74
2022/10/15 10:42:49;;;;;;;0.30;0.30;;;;;;;;;;5009948;28;20205;-74
2022/10/15 10:45:19;;;;;;;0.50;0.50;;;;;;;;;;5010163;28;20212;-74
2022/10/15 10:47:46;;;;;;;0.75;0.50;;;;;;;;;;5010204;28;20623;-74
2022/10/15 10:50:27;;;;;;;2.78;0.68;;;;;;;;;;5010561;28;20695;-74
2022/10/15 10:52:54;;;;;;;0.50;0.50;;;;;;;;;;5009327;28;20580;-74
2022/10/15 10:55:24;;;;;;;0.40;0.40;;;;;;;;;;5000089;28;20676;-75
2022/10/15 10:57:52;;;;;;;0.60;0.60;;;;;;;;;;5006356;28;20300;-74
2022/10/15 11:00:21;;;;;;;1.13;0.65;;;;;;;;;;5010370;28;20213;-75
2022/10/15 11:02:49;;;;;;;0.40;0.40;;;;;;;;;;5008393;28;20209;-74
2022/10/15 11:05:17;;;;;;;0.50;0.50;;;;;;;;;;5004112;28;20226;-74
2022/10/15 11:07:48;;;;;;;7.35;0.52;;;;;;;;;;5011172;28;20220;-74
2022/10/15 11:10:19;;;;;;;0.85;0.47;;;;;;;;;;5010164;28;20209;-74
2022/10/15 11:12:51;;;;;;;0.60;0.60;;;;;;;;;;5010044;28;20217;-75
2022/10/15 11:15:23;;;;;;;0.57;0.57;;;;;;;;;;5010035;28;20326;-75
2022/10/15 11:17:54;;;;;;;0.40;0.40;;;;;;;;;;5009726;28;20217;-74
2022/10/15 11:20:24;;;;;;;0.43;0.43;;;;;;;;;;5008410;28;20208;-74
2022/10/15 11:22:57;;;;;;;0.60;0.60;;;;;;;;;;5009149;28;20341;-74
2022/10/15 11:25:31;;;;;;;0.50;0.50;;;;;;;;;;5008509;28;20212;-74
2022/10/15 11:28:08;;;;;;;0.57;0.57;;;;;;;;;;5012093;28;20246;-75
2022/10/15 11:30:42;;;;;;;0.80;0.80;;;;;;;;;;5008205;28;20595;-74
2022/10/15 11:33:17;;;;;;;0.52;0.52;;;;;;;;;;5008581;28;20223;-76
2022/10/15 11:35:47;;;;;;;0.50;0.50;;;;;;;;;;5008623;28;20211;-75
2022/10/15 11:38:18;;;;;;;0.75;0.50;;;;;;;;;;5008650;28;20208;-72
2022/10/15 11:40:50;;;;;;;0.50;0.50;;;;;;;;;;5000239;28;20308;-74
2022/10/15 11:43:23;;;;;;;1.58;0.70;;;;;;;;;;5011854;28;20213;-76
2022/10/15 11:45:56;;;;;;;0.50;0.50;;;;;;;;;;5007468;28;20735;-76
2022/10/15 11:48:30;;;;;;;1.13;0.90;;;;;;;;;;5007498;28;20213;-67
2022/10/15 11:51:01;;;;;;;0.80;0.80;;;;;;;;;;5008768;28;20212;-69
2022/10/15 11:53:35;;;;;;;0.63;0.63;;;;;;;;;;5008734;28;20205;-73
2022/10/15 11:56:04;;;;;;;2.17;0.50;;;;;;;;;;5008917;28;20747;-72
2022/10/15 11:58:34;;;;;;;0.90;0.90;;;;;;;;;;5008949;28;20237;-74
2022/10/15 12:01:06;;;;;;;0.52;0.52;;;;;;;;;;5008833;28;20209;-73
2022/10/15 12:03:36;;;;;;;6.15;0.75;;;;;;;;;;5008468;28;20279;-72
2022/10/15 12:06:05;;;;;;;0.90;0.90;;;;;;;;;;5005633;28;20209;-72
2022/10/15 12:08:35;;;;;;;0.60;0.60;;;;;;;;;;5007930;28;20220;-71
2022/10/15 12:11:12;;;;;;;0.80;0.73;;;;;;;;;;5006336;28;20213;-72
2022/10/15 12:13:41;;;;;;;1.30;1.30;;;;;;;;;;5008035;28;20236;-72
2022/10/15 12:16:14;;;;;;;0.60;0.60;;;;;;;;;;4991879;28;20217;-72
2022/10/15 12:18:45;;;;;;;0.90;0.90;;;;;;;;;;5007221;28;20228;-73
2022/10/15 12:21:32;;;;;;;1.25;1.25;;;;;;;;;;5009020;28;20216;-72
2022/10/15 12:23:59;;;;;;;0.90;0.90;;;;;;;;;;5008702;28;20252;-72
2022/10/15 12:26:30;;;;;;;0.93;0.60;;;;;;;;;;5007650;28;20565;-72
2022/10/15 12:28:58;;;;;;;0.82;0.82;;;;;;;;;;5008666;28;20221;-72
2022/10/15 12:31:43;;;;;;;0.95;0.95;;;;;;;;;;4999727;28;20217;-70
2022/10/15 12:34:23;;;;;;;3.15;0.93;;;;;;;;;;5004384;28;20224;-74
2022/10/15 12:36:59;;;;;;;0.60;0.60;;;;;;;;;;5007424;28;20208;-73
2022/10/15 12:39:26;;;;;;;0.57;0.57;;;;;;;;;;5007297;28;20224;-73
2022/10/15 12:41:53;;;;;;;0.80;0.80;;;;;;;;;;5008032;28;20688;-73
2022/10/15 12:44:21;;;;;;;0.65;0.65;;;;;;;;;;5007660;28;20304;-73
2022/10/15 12:46:50;;;;;;;0.68;0.68;;;;;;;;;;5007791;28;20205;-74
2022/10/15 12:49:35;;;;;;;1.58;1.17;;;;;;;;;;5004211;28;20705;-73
2022/10/15 12:52:22;;;;;;;3.20;2.90;;;;;;;;;;5008051;28;20205;-73
2022/10/15 12:54:53;;;;;;;1.02;1.02;;;;;;;;;;5007776;28;20227;-73
2022/10/15 12:57:39;;;;;;;0.70;0.70;;;;;;;;;;5008138;28;20215;-74
2022/10/15 13:00:21;;;;;;;0.47;0.47;;;;;;;;;;5008247;28;20209;-73
2022/10/15 13:02:49;;;;;;;0.50;0.50;;;;;;;;;;5007234;28;20238;-73
2022/10/15 13:05:25;;;;;;;0.55;0.55;;;;;;;;;;5007474;28;20197;-71
2022/10/15 13:07:53;;;;;;;1.40;0.60;;;;;;;;;;5007357;28;20576;-71
2022/10/15 13:10:24;;;;;;;0.60;0.60;;;;;;;;;;5007474;28;20300;-73
2022/10/15 13:12:52;;;;;;;0.40;0.40;;;;;;;;;;5008132;28;20205;-70
2022/10/15 13:15:26;;;;;;;1.45;0.55;;;;;;;;;;5007209;28;20241;-72
2022/10/15 13:17:53;;;;;;;0.20;0.20;;;;;;;;;;5007729;28;20209;-71
2022/10/15 13:20:38;;;;;;;0.28;0.28;;;;;;;;;;5007485;28;20216;-71
2022/10/15 13:23:08;;;;;;;0.20;0.20;;;;;;;;;;5008080;28;20224;-74
2022/10/15 13:25:37;;;;;;;1.35;1.20;;;;;;;;;;5006847;28;20875;-73
2022/10/15 13:28:19;;;;;;;0.30;0.30;;;;;;;;;;4997184;28;20236;-74
2022/10/15 13:30:49;;;;;;;0.20;0.20;;;;;;;;;;5005763;28;20698;-73
2022/10/15 13:33:16;;;;;;;0.10;0.10;;;;;;;;;;5007223;28;20201;-73
2022/10/15 13:35:43;;;;;;;0.13;0.13;;;;;;;;;;5002020;28;20236;-70
2022/10/15 13:38:19;;;;;;;0.20;0.20;;;;;;;;;;5003553;28;20213;-72
2022/10/15 13:40:49;;;;;;;0.10;0.10;;;;;;;;;;5003062;28;20205;-73
2022/10/15 13:43:17;;;;;;;0.10;0.10;;;;;;;;;;5008530;28;20209;-73
2022/10/15 13:45:47;;;;;;;0.10;0.10;;;;;;;;;;5007006;28;20680;-74
2022/10/15 13:48:20;;;;;;;0.10;0.10;;;;;;;;;;4998529;28;20230;-73
2022/10/15 13:50:49;;;;;;;0.10;0.10;;;;;;;;;;5015981;28;20220;-73
2022/10/15 13:53:21;;;;;;;0.10;0.10;;;;;;;;;;5010208;28;20209;-78
2022/10/15 13:55:51;;;;;;;0.13;0.13;;;;;;;;;;5010947;28;20221;-71
2022/10/15 13:58:19;;;;;;;0.15;0.15;;;;;;;;;;5008119;28;20209;-72
2022/10/15 14:00:51;;;;;;;0.52;0.52;;;;;;;;;;4997136;28;20217;-72
2022/10/15 14:03:21;;;;;;;0.10;0.10;;;;;;;;;;5010793;28;20232;-73
2022/10/15 14:05:49;;;;;;;0.10;0.10;;;;;;;;;;5010154;28;20702;-72
2022/10/15 14:08:21;;;;;;;0.10;0.10;;;;;;;;;;5010861;28;20220;-72
2022/10/15 14:10:50;;;;;;;0.10;0.10;;;;;;;;;;5010286;28;20209;-71
2022/10/15 14:13:17;;;;;;;4.75;0.20;;;;;;;;;;5009672;28;20213;-72
2022/10/15 14:15:47;;;;;;;0.10;0.10;;;;;;;;;;5005887;28;20232;-72
2022/10/15 14:18:15;;;;;;;0.10;0.10;;;;;;;;;;5004544;28;20213;-72
2022/10/15 14:20:46;;;;;;;0.10;0.10;;;;;;;;;;5007579;28;20213;-72
2022/10/15 14:23:17;;;;;;;0.10;0.10;;;;;;;;;;5010494;28;20217;-72
2022/10/15 14:25:44;;;;;;;0.70;0.10;;;;;;;;;;5010470;28;20676;-72
2022/10/15 14:28:20;;;;;;;0.22;0.10;;;;;;;;;;5009907;28;20252;-72
2022/10/15 14:30:48;;;;;;;0.08;0.08;;;;;;;;;;5010537;28;20224;-72
2022/10/15 14:33:29;;;;;;;0.00;0.00;;;;;;;;;;5010037;28;20213;-72
2022/10/15 14:36:07;;;;;;;0.10;0.10;;;;;;;;;;5010720;28;20246;-72
2022/10/15 14:38:34;;;;;;;0.10;0.10;;;;;;;;;;5009385;28;20233;-71
2022/10/15 14:41:06;;;;;;;0.10;0.10;;;;;;;;;;5009583;28;20205;-72
2022/10/15 14:43:35;;;;;;;0.08;0.08;;;;;;;;;;5010446;28;20734;-71
2022/10/15 14:46:04;;;;;;;0.00;0.00;;;;;;;;;;5010405;28;20213;-72
2022/10/15 14:48:33;;;;;;;0.10;0.10;;;;;;;;;;5009850;28;20212;-72
2022/10/15 14:51:00;;;;;;;0.10;0.10;;;;;;;;;;5009735;28;20213;-71
2022/10/15 14:53:28;;;;;;;0.08;0.08;;;;;;;;;;5007770;28;20213;-72
2022/10/15 14:55:58;;;;;;;0.10;0.10;;;;;;;;;;5007360;28;20454;-73
2022/10/15 14:58:26;;;;;;;0.10;0.10;;;;;;;;;;5009729;28;20216;-73